Main page
METAR-TAF:

METAR-TAF

Airports :

Tokachi Airfield

Tokachi-Obihiro, Japan

latitude: 42-54N, longitude: 143-10E, elevation: 84 m

Current weather observation

The report was made 58 minutes ago, at 04:48 UTC
Wind 7 kt from the North/Northeast
Temperature 11°C
Humidity 50%
Pressure 1015 hPa
Visibility 10 km or more
Few clouds at a height of 3000 ft
Broken clouds at a height of 5000 ft

METAR: RJCT 230448Z 02007KT 9999 FEW030 BKN050 11/01 Q1015 RMK 2CU030 5CU050 A2998

Time: 14:46 (05:46 UTC)


TAF: missing

Weather observations and forecasts of more than 4000 airports (METAR and TAF reports).

The available stations are represented by yellow and red dots on the map.

Hover mouse over dot to see the name of the station.

Then click to see weather observations and forecasts.

To change the map : click on the green buttons with a black cross to zoom in, on the green button with a dash to zoom out, or on the green arrows for adjacent maps.


METAR-TAF: